sensor_id;sensor_type;location;lat;lon;timestamp;P1;durP1;ratioP1;P2;durP2;ratioP2
67981;SDS011;64109;52.148;4.466;2022-12-19T00:00:46;10.32;;;5.65;;
67981;SDS011;64109;52.148;4.466;2022-12-19T00:03:12;9.80;;;5.43;;
67981;SDS011;64109;52.148;4.466;2022-12-19T00:05:38;8.10;;;4.88;;
67981;SDS011;64109;52.148;4.466;2022-12-19T00:08:05;8.65;;;4.88;;
67981;SDS011;64109;52.148;4.466;2022-12-19T00:10:32;9.00;;;5.20;;
67981;SDS011;64109;52.148;4.466;2022-12-19T00:12:58;10.18;;;5.13;;
67981;SDS011;64109;52.148;4.466;2022-12-19T00:15:24;10.75;;;5.85;;
67981;SDS011;64109;52.148;4.466;2022-12-19T00:17:50;8.27;;;4.75;;
67981;SDS011;64109;52.148;4.466;2022-12-19T00:20:16;8.30;;;4.80;;
67981;SDS011;64109;52.148;4.466;2022-12-19T00:22:42;10.60;;;5.43;;
67981;SDS011;64109;52.148;4.466;2022-12-19T00:25:08;8.40;;;4.60;;
67981;SDS011;64109;52.148;4.466;2022-12-19T00:27:34;8.18;;;4.60;;
67981;SDS011;64109;52.148;4.466;2022-12-19T00:30:00;8.50;;;5.38;;
67981;SDS011;64109;52.148;4.466;2022-12-19T00:32:26;8.57;;;5.00;;
67981;SDS011;64109;52.148;4.466;2022-12-19T00:34:52;9.70;;;5.03;;
67981;SDS011;64109;52.148;4.466;2022-12-19T00:37:18;8.85;;;5.15;;
67981;SDS011;64109;52.148;4.466;2022-12-19T00:39:44;8.27;;;4.30;;
67981;SDS011;64109;52.148;4.466;2022-12-19T00:42:10;8.07;;;4.80;;
67981;SDS011;64109;52.148;4.466;2022-12-19T00:44:36;8.50;;;4.53;;
67981;SDS011;64109;52.148;4.466;2022-12-19T00:47:02;8.15;;;4.55;;
67981;SDS011;64109;52.148;4.466;2022-12-19T00:49:28;7.25;;;4.65;;
67981;SDS011;64109;52.148;4.466;2022-12-19T00:51:54;8.02;;;4.55;;
67981;SDS011;64109;52.148;4.466;2022-12-19T00:54:21;8.13;;;4.68;;
67981;SDS011;64109;52.148;4.466;2022-12-19T00:56:47;7.85;;;4.65;;
67981;SDS011;64109;52.148;4.466;2022-12-19T00:59:13;7.78;;;3.85;;
67981;SDS011;64109;52.148;4.466;2022-12-19T01:01:40;7.63;;;4.38;;
67981;SDS011;64109;52.148;4.466;2022-12-19T01:04:06;7.55;;;4.43;;
67981;SDS011;64109;52.148;4.466;2022-12-19T01:06:33;6.95;;;4.22;;
67981;SDS011;64109;52.148;4.466;2022-12-19T01:08:59;7.28;;;4.30;;
67981;SDS011;64109;52.148;4.466;2022-12-19T01:11:25;7.85;;;4.68;;
67981;SDS011;64109;52.148;4.466;2022-12-19T01:14:11;7.82;;;4.38;;
67981;SDS011;64109;52.148;4.466;2022-12-19T01:16:37;7.25;;;4.03;;
67981;SDS011;64109;52.148;4.466;2022-12-19T01:19:03;6.63;;;4.18;;
67981;SDS011;64109;52.148;4.466;2022-12-19T01:21:29;7.53;;;4.32;;
67981;SDS011;64109;52.148;4.466;2022-12-19T01:23:55;6.35;;;3.83;;
67981;SDS011;64109;52.148;4.466;2022-12-19T01:26:21;7.18;;;4.30;;
67981;SDS011;64109;52.148;4.466;2022-12-19T01:28:47;6.97;;;4.07;;
67981;SDS011;64109;52.148;4.466;2022-12-19T01:31:13;8.25;;;4.43;;
67981;SDS011;64109;52.148;4.466;2022-12-19T01:33:40;8.23;;;4.45;;
67981;SDS011;64109;52.148;4.466;2022-12-19T01:36:06;7.05;;;4.07;;
67981;SDS011;64109;52.148;4.466;2022-12-19T01:38:33;7.65;;;3.95;;
67981;SDS011;64109;52.148;4.466;2022-12-19T01:40:59;6.90;;;4.22;;
67981;SDS011;64109;52.148;4.466;2022-12-19T01:43:27;7.40;;;4.10;;
67981;SDS011;64109;52.148;4.466;2022-12-19T01:45:58;7.30;;;4.03;;
67981;SDS011;64109;52.148;4.466;2022-12-19T01:48:32;7.57;;;5.03;;
67981;SDS011;64109;52.148;4.466;2022-12-19T01:51:03;7.15;;;4.40;;
67981;SDS011;64109;52.148;4.466;2022-12-19T01:53:34;7.65;;;4.28;;
67981;SDS011;64109;52.148;4.466;2022-12-19T01:56:01;6.95;;;4.13;;
67981;SDS011;64109;52.148;4.466;2022-12-19T01:58:30;5.65;;;3.72;;
67981;SDS011;64109;52.148;4.466;2022-12-19T02:00:56;7.72;;;4.47;;
67981;SDS011;64109;52.148;4.466;2022-12-19T02:03:26;7.05;;;4.18;;
67981;SDS011;64109;52.148;4.466;2022-12-19T02:05:53;6.68;;;4.13;;
67981;SDS011;64109;52.148;4.466;2022-12-19T02:08:19;7.05;;;3.97;;
67981;SDS011;64109;52.148;4.466;2022-12-19T02:10:46;7.05;;;3.92;;
67981;SDS011;64109;52.148;4.466;2022-12-19T02:13:12;7.13;;;3.88;;
67981;SDS011;64109;52.148;4.466;2022-12-19T02:18:14;7.20;;;3.70;;
67981;SDS011;64109;52.148;4.466;2022-12-19T02:35:31;6.10;;;3.88;;
67981;SDS011;64109;52.148;4.466;2022-12-19T02:38:07;7.13;;;4.10;;
67981;SDS011;64109;52.148;4.466;2022-12-19T02:40:45;7.60;;;3.85;;
67981;SDS011;64109;52.148;4.466;2022-12-19T02:43:13;6.53;;;3.85;;
67981;SDS011;64109;52.148;4.466;2022-12-19T02:45:40;5.85;;;3.88;;
67981;SDS011;64109;52.148;4.466;2022-12-19T02:48:06;6.15;;;3.92;;
67981;SDS011;64109;52.148;4.466;2022-12-19T02:50:37;6.15;;;3.55;;
67981;SDS011;64109;52.148;4.466;2022-12-19T02:53:03;6.28;;;3.83;;
67981;SDS011;64109;52.148;4.466;2022-12-19T02:55:29;6.20;;;3.53;;
67981;SDS011;64109;52.148;4.466;2022-12-19T02:58:01;5.93;;;3.67;;
67981;SDS011;64109;52.148;4.466;2022-12-19T03:00:30;5.50;;;3.40;;
67981;SDS011;64109;52.148;4.466;2022-12-19T03:10:44;6.03;;;3.42;;
67981;SDS011;64109;52.148;4.466;2022-12-19T03:13:20;5.63;;;3.15;;
67981;SDS011;64109;52.148;4.466;2022-12-19T03:15:47;5.68;;;3.45;;
67981;SDS011;64109;52.148;4.466;2022-12-19T03:18:13;5.30;;;2.95;;
67981;SDS011;64109;52.148;4.466;2022-12-19T03:23:09;5.25;;;3.25;;
67981;SDS011;64109;52.148;4.466;2022-12-19T03:25:35;5.47;;;3.20;;
67981;SDS011;64109;52.148;4.466;2022-12-19T03:28:03;5.63;;;3.92;;
67981;SDS011;64109;52.148;4.466;2022-12-19T03:30:31;4.75;;;2.97;;
67981;SDS011;64109;52.148;4.466;2022-12-19T03:32:59;4.75;;;3.10;;
67981;SDS011;64109;52.148;4.466;2022-12-19T03:35:26;5.78;;;3.28;;
67981;SDS011;64109;52.148;4.466;2022-12-19T03:37:54;4.30;;;2.50;;
67981;SDS011;64109;52.148;4.466;2022-12-19T03:40:23;3.92;;;2.72;;
67981;SDS011;64109;52.148;4.466;2022-12-19T03:42:51;4.20;;;2.50;;
67981;SDS011;64109;52.148;4.466;2022-12-19T03:45:54;4.68;;;2.95;;
67981;SDS011;64109;52.148;4.466;2022-12-19T03:48:38;4.70;;;2.50;;
67981;SDS011;64109;52.148;4.466;2022-12-19T03:53:37;3.78;;;2.45;;
67981;SDS011;64109;52.148;4.466;2022-12-19T03:58:51;3.58;;;2.28;;
67981;SDS011;64109;52.148;4.466;2022-12-19T04:01:20;3.83;;;2.50;;
67981;SDS011;64109;52.148;4.466;2022-12-19T04:03:46;3.15;;;1.98;;
67981;SDS011;64109;52.148;4.466;2022-12-19T04:06:12;3.10;;;2.15;;
67981;SDS011;64109;52.148;4.466;2022-12-19T04:08:39;3.42;;;2.30;;
67981;SDS011;64109;52.148;4.466;2022-12-19T04:11:07;4.93;;;2.60;;
67981;SDS011;64109;52.148;4.466;2022-12-19T04:13:43;3.35;;;2.13;;
67981;SDS011;64109;52.148;4.466;2022-12-19T04:16:15;2.80;;;1.77;;
67981;SDS011;64109;52.148;4.466;2022-12-19T04:18:43;2.72;;;1.88;;
67981;SDS011;64109;52.148;4.466;2022-12-19T04:21:19;4.05;;;2.25;;
67981;SDS011;64109;52.148;4.466;2022-12-19T04:23:48;3.50;;;2.00;;
67981;SDS011;64109;52.148;4.466;2022-12-19T04:26:15;3.83;;;2.33;;
67981;SDS011;64109;52.148;4.466;2022-12-19T04:31:12;2.90;;;1.73;;
67981;SDS011;64109;52.148;4.466;2022-12-19T04:33:39;3.17;;;2.25;;
67981;SDS011;64109;52.148;4.466;2022-12-19T04:36:05;2.75;;;1.80;;
67981;SDS011;64109;52.148;4.466;2022-12-19T04:38:31;3.35;;;1.90;;
67981;SDS011;64109;52.148;4.466;2022-12-19T04:40:57;4.88;;;1.80;;
67981;SDS011;64109;52.148;4.466;2022-12-19T04:43:23;2.88;;;1.75;;
67981;SDS011;64109;52.148;4.466;2022-12-19T04:45:49;3.30;;;2.10;;
67981;SDS011;64109;52.148;4.466;2022-12-19T04:48:15;3.22;;;1.90;;
67981;SDS011;64109;52.148;4.466;2022-12-19T04:50:41;4.35;;;2.08;;
67981;SDS011;64109;52.148;4.466;2022-12-19T04:53:07;3.50;;;2.00;;
67981;SDS011;64109;52.148;4.466;2022-12-19T04:55:33;4.80;;;1.70;;
67981;SDS011;64109;52.148;4.466;2022-12-19T04:57:59;3.50;;;1.90;;
67981;SDS011;64109;52.148;4.466;2022-12-19T05:00:25;2.50;;;1.67;;
67981;SDS011;64109;52.148;4.466;2022-12-19T05:02:51;3.00;;;1.60;;
67981;SDS011;64109;52.148;4.466;2022-12-19T05:05:17;3.15;;;1.90;;
67981;SDS011;64109;52.148;4.466;2022-12-19T05:07:43;2.53;;;1.73;;
67981;SDS011;64109;52.148;4.466;2022-12-19T05:10:09;2.80;;;1.80;;
67981;SDS011;64109;52.148;4.466;2022-12-19T05:12:35;3.22;;;1.77;;
67981;SDS011;64109;52.148;4.466;2022-12-19T05:15:01;3.17;;;1.83;;
67981;SDS011;64109;52.148;4.466;2022-12-19T05:17:27;3.40;;;1.90;;
67981;SDS011;64109;52.148;4.466;2022-12-19T05:19:53;2.35;;;1.50;;
67981;SDS011;64109;52.148;4.466;2022-12-19T05:22:19;3.13;;;1.83;;
67981;SDS011;64109;52.148;4.466;2022-12-19T05:24:45;2.30;;;1.50;;
67981;SDS011;64109;52.148;4.466;2022-12-19T05:27:11;2.30;;;1.50;;
67981;SDS011;64109;52.148;4.466;2022-12-19T05:29:37;2.30;;;1.70;;
67981;SDS011;64109;52.148;4.466;2022-12-19T05:32:03;2.45;;;1.58;;
67981;SDS011;64109;52.148;4.466;2022-12-19T05:34:29;3.03;;;1.80;;
67981;SDS011;64109;52.148;4.466;2022-12-19T05:36:55;2.90;;;1.58;;
67981;SDS011;64109;52.148;4.466;2022-12-19T05:39:21;3.10;;;1.70;;
67981;SDS011;64109;52.148;4.466;2022-12-19T05:41:47;2.15;;;1.67;;
67981;SDS011;64109;52.148;4.466;2022-12-19T05:44:13;2.65;;;1.67;;
67981;SDS011;64109;52.148;4.466;2022-12-19T05:46:39;3.08;;;1.80;;
67981;SDS011;64109;52.148;4.466;2022-12-19T05:49:05;3.25;;;2.15;;
67981;SDS011;64109;52.148;4.466;2022-12-19T05:51:31;2.50;;;1.60;;
67981;SDS011;64109;52.148;4.466;2022-12-19T05:53:59;3.60;;;1.90;;
67981;SDS011;64109;52.148;4.466;2022-12-19T05:56:25;2.92;;;1.80;;
67981;SDS011;64109;52.148;4.466;2022-12-19T05:58:51;3.30;;;2.08;;
67981;SDS011;64109;52.148;4.466;2022-12-19T06:01:19;3.55;;;1.90;;
67981;SDS011;64109;52.148;4.466;2022-12-19T06:03:46;3.92;;;1.70;;
67981;SDS011;64109;52.148;4.466;2022-12-19T06:06:13;3.72;;;1.60;;
67981;SDS011;64109;52.148;4.466;2022-12-19T06:08:39;3.33;;;1.92;;
67981;SDS011;64109;52.148;4.466;2022-12-19T06:11:06;2.92;;;1.65;;
67981;SDS011;64109;52.148;4.466;2022-12-19T06:13:32;2.90;;;2.10;;
67981;SDS011;64109;52.148;4.466;2022-12-19T06:16:06;2.88;;;1.77;;
67981;SDS011;64109;52.148;4.466;2022-12-19T06:18:33;3.17;;;2.00;;
67981;SDS011;64109;52.148;4.466;2022-12-19T06:20:59;3.55;;;1.70;;
67981;SDS011;64109;52.148;4.466;2022-12-19T06:23:26;2.53;;;1.77;;
67981;SDS011;64109;52.148;4.466;2022-12-19T06:25:54;2.58;;;1.70;;
67981;SDS011;64109;52.148;4.466;2022-12-19T06:28:20;2.47;;;1.63;;
67981;SDS011;64109;52.148;4.466;2022-12-19T06:30:46;3.00;;;1.90;;
67981;SDS011;64109;52.148;4.466;2022-12-19T06:33:12;3.80;;;1.80;;
67981;SDS011;64109;52.148;4.466;2022-12-19T06:35:38;2.55;;;1.60;;
67981;SDS011;64109;52.148;4.466;2022-12-19T06:38:04;5.03;;;1.65;;
67981;SDS011;64109;52.148;4.466;2022-12-19T06:40:30;7.00;;;2.05;;
67981;SDS011;64109;52.148;4.466;2022-12-19T06:43:15;3.60;;;2.00;;
67981;SDS011;64109;52.148;4.466;2022-12-19T06:45:41;2.53;;;1.80;;
67981;SDS011;64109;52.148;4.466;2022-12-19T06:48:06;3.65;;;2.00;;
67981;SDS011;64109;52.148;4.466;2022-12-19T06:50:33;3.78;;;2.13;;
67981;SDS011;64109;52.148;4.466;2022-12-19T06:52:59;3.30;;;2.40;;
67981;SDS011;64109;52.148;4.466;2022-12-19T06:55:25;3.75;;;2.03;;
67981;SDS011;64109;52.148;4.466;2022-12-19T06:57:51;3.15;;;1.63;;
67981;SDS011;64109;52.148;4.466;2022-12-19T07:00:17;3.63;;;2.10;;
67981;SDS011;64109;52.148;4.466;2022-12-19T07:02:46;4.43;;;2.13;;
67981;SDS011;64109;52.148;4.466;2022-12-19T07:05:13;4.60;;;2.20;;
67981;SDS011;64109;52.148;4.466;2022-12-19T07:07:39;7.65;;;2.20;;
67981;SDS011;64109;52.148;4.466;2022-12-19T07:10:06;4.65;;;2.17;;
67981;SDS011;64109;52.148;4.466;2022-12-19T07:12:32;5.40;;;2.35;;
67981;SDS011;64109;52.148;4.466;2022-12-19T07:14:59;4.63;;;1.95;;
67981;SDS011;64109;52.148;4.466;2022-12-19T07:17:25;5.15;;;2.25;;
67981;SDS011;64109;52.148;4.466;2022-12-19T07:19:53;5.60;;;2.35;;
67981;SDS011;64109;52.148;4.466;2022-12-19T07:22:20;4.40;;;2.10;;
67981;SDS011;64109;52.148;4.466;2022-12-19T07:24:46;4.10;;;1.88;;
67981;SDS011;64109;52.148;4.466;2022-12-19T07:27:13;4.47;;;1.77;;
67981;SDS011;64109;52.148;4.466;2022-12-19T07:29:39;5.63;;;2.00;;
67981;SDS011;64109;52.148;4.466;2022-12-19T07:32:05;5.40;;;1.98;;
67981;SDS011;64109;52.148;4.466;2022-12-19T07:34:31;7.03;;;1.90;;
67981;SDS011;64109;52.148;4.466;2022-12-19T07:36:57;4.15;;;1.98;;
67981;SDS011;64109;52.148;4.466;2022-12-19T07:39:23;4.03;;;2.30;;
67981;SDS011;64109;52.148;4.466;2022-12-19T07:41:49;5.35;;;2.42;;
67981;SDS011;64109;52.148;4.466;2022-12-19T07:44:15;6.68;;;2.08;;
67981;SDS011;64109;52.148;4.466;2022-12-19T07:46:41;7.45;;;2.20;;
67981;SDS011;64109;52.148;4.466;2022-12-19T07:49:07;4.50;;;1.83;;
67981;SDS011;64109;52.148;4.466;2022-12-19T07:51:33;4.50;;;2.08;;
67981;SDS011;64109;52.148;4.466;2022-12-19T07:53:59;3.58;;;1.90;;
67981;SDS011;64109;52.148;4.466;2022-12-19T07:56:25;4.72;;;2.13;;
67981;SDS011;64109;52.148;4.466;2022-12-19T07:58:51;4.00;;;2.10;;
67981;SDS011;64109;52.148;4.466;2022-12-19T08:01:17;5.72;;;2.33;;
67981;SDS011;64109;52.148;4.466;2022-12-19T08:03:44;5.55;;;1.90;;
67981;SDS011;64109;52.148;4.466;2022-12-19T08:06:10;4.88;;;2.08;;
67981;SDS011;64109;52.148;4.466;2022-12-19T08:08:36;4.35;;;2.10;;
67981;SDS011;64109;52.148;4.466;2022-12-19T08:11:07;4.57;;;2.10;;
67981;SDS011;64109;52.148;4.466;2022-12-19T08:13:33;3.42;;;1.60;;
67981;SDS011;64109;52.148;4.466;2022-12-19T08:15:59;3.72;;;2.08;;
67981;SDS011;64109;52.148;4.466;2022-12-19T08:18:25;4.80;;;2.40;;
67981;SDS011;64109;52.148;4.466;2022-12-19T08:20:51;8.90;;;2.10;;
67981;SDS011;64109;52.148;4.466;2022-12-19T08:23:17;6.43;;;2.30;;
67981;SDS011;64109;52.148;4.466;2022-12-19T08:25:43;4.55;;;2.20;;
67981;SDS011;64109;52.148;4.466;2022-12-19T08:28:09;3.03;;;1.67;;
67981;SDS011;64109;52.148;4.466;2022-12-19T08:30:39;4.22;;;1.92;;
67981;SDS011;64109;52.148;4.466;2022-12-19T08:33:05;5.32;;;2.05;;
67981;SDS011;64109;52.148;4.466;2022-12-19T08:35:31;4.10;;;1.95;;
67981;SDS011;64109;52.148;4.466;2022-12-19T08:37:57;3.88;;;2.05;;
67981;SDS011;64109;52.148;4.466;2022-12-19T08:40:23;3.30;;;1.60;;
67981;SDS011;64109;52.148;4.466;2022-12-19T08:42:49;3.53;;;2.00;;
67981;SDS011;64109;52.148;4.466;2022-12-19T08:45:16;4.57;;;2.03;;
67981;SDS011;64109;52.148;4.466;2022-12-19T08:47:42;3.53;;;1.83;;
67981;SDS011;64109;52.148;4.466;2022-12-19T08:50:08;5.10;;;1.80;;
67981;SDS011;64109;52.148;4.466;2022-12-19T08:52:34;4.05;;;1.95;;
67981;SDS011;64109;52.148;4.466;2022-12-19T08:55:00;2.95;;;1.63;;
67981;SDS011;64109;52.148;4.466;2022-12-19T08:57:26;4.50;;;1.88;;
67981;SDS011;64109;52.148;4.466;2022-12-19T08:59:52;3.55;;;1.83;;
67981;SDS011;64109;52.148;4.466;2022-12-19T09:02:18;4.32;;;1.67;;
67981;SDS011;64109;52.148;4.466;2022-12-19T09:04:44;4.75;;;2.00;;
67981;SDS011;64109;52.148;4.466;2022-12-19T09:07:11;3.78;;;1.70;;
67981;SDS011;64109;52.148;4.466;2022-12-19T09:09:37;3.45;;;1.50;;
67981;SDS011;64109;52.148;4.466;2022-12-19T09:12:03;4.28;;;1.92;;
67981;SDS011;64109;52.148;4.466;2022-12-19T09:14:33;6.25;;;1.75;;
67981;SDS011;64109;52.148;4.466;2022-12-19T09:16:59;3.88;;;1.70;;
67981;SDS011;64109;52.148;4.466;2022-12-19T09:19:25;2.58;;;1.70;;
67981;SDS011;64109;52.148;4.466;2022-12-19T09:21:51;2.60;;;1.60;;
67981;SDS011;64109;52.148;4.466;2022-12-19T09:24:17;3.35;;;1.58;;
67981;SDS011;64109;52.148;4.466;2022-12-19T09:26:43;5.32;;;1.60;;
67981;SDS011;64109;52.148;4.466;2022-12-19T09:29:10;3.60;;;1.80;;
67981;SDS011;64109;52.148;4.466;2022-12-19T09:31:36;3.05;;;1.63;;
67981;SDS011;64109;52.148;4.466;2022-12-19T09:34:02;3.22;;;1.85;;
67981;SDS011;64109;52.148;4.466;2022-12-19T09:36:28;3.85;;;1.65;;
67981;SDS011;64109;52.148;4.466;2022-12-19T09:38:55;3.65;;;1.88;;
67981;SDS011;64109;52.148;4.466;2022-12-19T09:49:01;4.07;;;1.77;;
67981;SDS011;64109;52.148;4.466;2022-12-19T09:51:34;2.80;;;1.52;;
67981;SDS011;64109;52.148;4.466;2022-12-19T09:54:16;5.03;;;1.90;;
67981;SDS011;64109;52.148;4.466;2022-12-19T09:56:43;3.92;;;1.63;;
67981;SDS011;64109;52.148;4.466;2022-12-19T09:59:12;3.70;;;1.63;;
67981;SDS011;64109;52.148;4.466;2022-12-19T10:02:23;3.50;;;1.40;;
67981;SDS011;64109;52.148;4.466;2022-12-19T10:04:28;4.78;;;1.70;;
67981;SDS011;64109;52.148;4.466;2022-12-19T10:06:57;4.22;;;1.67;;
67981;SDS011;64109;52.148;4.466;2022-12-19T10:09:26;2.33;;;1.35;;
67981;SDS011;64109;52.148;4.466;2022-12-19T10:12:00;4.63;;;1.50;;
67981;SDS011;64109;52.148;4.466;2022-12-19T10:17:12;4.32;;;1.50;;
67981;SDS011;64109;52.148;4.466;2022-12-19T10:34:43;3.65;;;1.52;;
67981;SDS011;64109;52.148;4.466;2022-12-19T10:37:15;3.05;;;1.73;;
67981;SDS011;64109;52.148;4.466;2022-12-19T10:42:14;3.00;;;1.63;;
67981;SDS011;64109;52.148;4.466;2022-12-19T10:44:41;2.58;;;1.45;;
67981;SDS011;64109;52.148;4.466;2022-12-19T10:47:09;4.25;;;1.60;;
67981;SDS011;64109;52.148;4.466;2022-12-19T10:49:38;3.92;;;1.65;;
67981;SDS011;64109;52.148;4.466;2022-12-19T10:52:05;2.55;;;1.30;;
67981;SDS011;64109;52.148;4.466;2022-12-19T10:59:52;2.75;;;1.50;;
67981;SDS011;64109;52.148;4.466;2022-12-19T11:02:31;3.35;;;1.65;;
67981;SDS011;64109;52.148;4.466;2022-12-19T11:04:57;4.18;;;2.25;;
67981;SDS011;64109;52.148;4.466;2022-12-19T11:07:24;2.72;;;1.60;;
67981;SDS011;64109;52.148;4.466;2022-12-19T11:09:50;3.17;;;1.80;;
67981;SDS011;64109;52.148;4.466;2022-12-19T11:12:17;2.42;;;1.50;;
67981;SDS011;64109;52.148;4.466;2022-12-19T11:14:49;2.45;;;1.35;;
67981;SDS011;64109;52.148;4.466;2022-12-19T11:17:22;3.25;;;1.55;;
67981;SDS011;64109;52.148;4.466;2022-12-19T11:19:49;3.05;;;1.58;;
67981;SDS011;64109;52.148;4.466;2022-12-19T11:25:17;2.45;;;1.38;;
67981;SDS011;64109;52.148;4.466;2022-12-19T11:27:44;2.42;;;1.10;;
67981;SDS011;64109;52.148;4.466;2022-12-19T11:32:40;3.85;;;1.55;;
67981;SDS011;64109;52.148;4.466;2022-12-19T11:37:40;3.10;;;1.30;;
67981;SDS011;64109;52.148;4.466;2022-12-19T11:40:10;3.13;;;1.42;;
67981;SDS011;64109;52.148;4.466;2022-12-19T11:42:43;1.70;;;1.23;;
67981;SDS011;64109;52.148;4.466;2022-12-19T11:47:41;2.88;;;1.40;;
67981;SDS011;64109;52.148;4.466;2022-12-19T11:50:10;2.60;;;1.30;;
67981;SDS011;64109;52.148;4.466;2022-12-19T11:52:43;2.97;;;1.35;;
67981;SDS011;64109;52.148;4.466;2022-12-19T11:55:17;2.22;;;1.40;;
67981;SDS011;64109;52.148;4.466;2022-12-19T11:57:44;2.20;;;1.35;;
67981;SDS011;64109;52.148;4.466;2022-12-19T12:00:29;3.35;;;1.30;;
67981;SDS011;64109;52.148;4.466;2022-12-19T12:05:48;4.35;;;1.20;;
67981;SDS011;64109;52.148;4.466;2022-12-19T12:10:44;2.28;;;1.08;;
67981;SDS011;64109;52.148;4.466;2022-12-19T12:13:17;2.75;;;1.63;;
67981;SDS011;64109;52.148;4.466;2022-12-19T12:25:46;2.05;;;1.25;;
67981;SDS011;64109;52.148;4.466;2022-12-19T12:31:20;2.45;;;1.42;;
67981;SDS011;64109;52.148;4.466;2022-12-19T12:36:17;3.25;;;1.20;;
67981;SDS011;64109;52.148;4.466;2022-12-19T12:46:13;1.92;;;1.10;;
67981;SDS011;64109;52.148;4.466;2022-12-19T12:51:05;2.20;;;1.20;;
67981;SDS011;64109;52.148;4.466;2022-12-19T12:53:33;3.25;;;2.05;;
67981;SDS011;64109;52.148;4.466;2022-12-19T12:56:00;2.75;;;1.38;;
67981;SDS011;64109;52.148;4.466;2022-12-19T13:01:16;2.72;;;1.45;;
67981;SDS011;64109;52.148;4.466;2022-12-19T13:03:50;3.00;;;1.50;;
67981;SDS011;64109;52.148;4.466;2022-12-19T13:06:24;1.83;;;1.05;;
67981;SDS011;64109;52.148;4.466;2022-12-19T13:08:51;2.55;;;0.90;;
67981;SDS011;64109;52.148;4.466;2022-12-19T13:14:04;1.63;;;1.13;;
67981;SDS011;64109;52.148;4.466;2022-12-19T13:19:28;2.83;;;1.10;;
67981;SDS011;64109;52.148;4.466;2022-12-19T13:35:04;2.55;;;1.40;;
67981;SDS011;64109;52.148;4.466;2022-12-19T13:37:38;2.60;;;1.85;;
67981;SDS011;64109;52.148;4.466;2022-12-19T13:42:37;2.20;;;1.33;;
67981;SDS011;64109;52.148;4.466;2022-12-19T13:45:32;2.00;;;1.20;;
67981;SDS011;64109;52.148;4.466;2022-12-19T13:47:58;1.83;;;1.10;;
67981;SDS011;64109;52.148;4.466;2022-12-19T13:52:54;3.60;;;1.30;;
67981;SDS011;64109;52.148;4.466;2022-12-19T13:55:20;2.95;;;1.63;;
67981;SDS011;64109;52.148;4.466;2022-12-19T13:57:47;1.73;;;1.00;;
67981;SDS011;64109;52.148;4.466;2022-12-19T14:00:17;2.47;;;1.35;;
67981;SDS011;64109;52.148;4.466;2022-12-19T14:02:45;2.17;;;1.23;;
67981;SDS011;64109;52.148;4.466;2022-12-19T14:05:18;4.07;;;1.60;;
67981;SDS011;64109;52.148;4.466;2022-12-19T14:07:45;3.92;;;1.27;;
67981;SDS011;64109;52.148;4.466;2022-12-19T14:10:22;3.40;;;1.27;;
67981;SDS011;64109;52.148;4.466;2022-12-19T14:12:49;2.22;;;1.27;;
67981;SDS011;64109;52.148;4.466;2022-12-19T14:15:38;2.50;;;1.30;;
67981;SDS011;64109;52.148;4.466;2022-12-19T14:18:19;2.83;;;1.42;;
67981;SDS011;64109;52.148;4.466;2022-12-19T14:20:49;2.58;;;1.30;;
67981;SDS011;64109;52.148;4.466;2022-12-19T14:23:15;2.90;;;1.50;;
67981;SDS011;64109;52.148;4.466;2022-12-19T14:28:09;3.80;;;1.63;;
67981;SDS011;64109;52.148;4.466;2022-12-19T14:30:37;3.30;;;1.23;;
67981;SDS011;64109;52.148;4.466;2022-12-19T14:33:10;3.00;;;1.45;;
67981;SDS011;64109;52.148;4.466;2022-12-19T14:35:44;1.90;;;1.20;;
67981;SDS011;64109;52.148;4.466;2022-12-19T14:38:14;2.28;;;1.15;;
67981;SDS011;64109;52.148;4.466;2022-12-19T14:40:40;1.80;;;0.98;;
67981;SDS011;64109;52.148;4.466;2022-12-19T14:51:18;2.08;;;1.25;;
67981;SDS011;64109;52.148;4.466;2022-12-19T14:56:31;2.53;;;1.48;;
67981;SDS011;64109;52.148;4.466;2022-12-19T14:58:58;3.78;;;1.45;;
67981;SDS011;64109;52.148;4.466;2022-12-19T15:01:25;3.28;;;1.50;;
67981;SDS011;64109;52.148;4.466;2022-12-19T15:04:02;2.03;;;1.23;;
67981;SDS011;64109;52.148;4.466;2022-12-19T15:06:29;3.22;;;1.45;;
67981;SDS011;64109;52.148;4.466;2022-12-19T15:08:57;1.60;;;1.10;;
67981;SDS011;64109;52.148;4.466;2022-12-19T15:11:32;2.53;;;1.30;;
67981;SDS011;64109;52.148;4.466;2022-12-19T15:14:24;4.32;;;1.52;;
67981;SDS011;64109;52.148;4.466;2022-12-19T15:17:09;2.40;;;1.33;;
67981;SDS011;64109;52.148;4.466;2022-12-19T15:19:38;1.70;;;1.02;;
67981;SDS011;64109;52.148;4.466;2022-12-19T15:22:04;1.67;;;0.88;;
67981;SDS011;64109;52.148;4.466;2022-12-19T15:24:30;3.30;;;1.80;;
67981;SDS011;64109;52.148;4.466;2022-12-19T15:26:56;2.30;;;1.30;;
67981;SDS011;64109;52.148;4.466;2022-12-19T15:29:22;2.17;;;1.10;;
67981;SDS011;64109;52.148;4.466;2022-12-19T15:31:50;3.05;;;1.55;;
67981;SDS011;64109;52.148;4.466;2022-12-19T15:36:46;2.70;;;1.25;;
67981;SDS011;64109;52.148;4.466;2022-12-19T15:39:12;2.80;;;1.52;;
67981;SDS011;64109;52.148;4.466;2022-12-19T15:44:09;2.70;;;1.33;;
67981;SDS011;64109;52.148;4.466;2022-12-19T15:46:39;2.13;;;1.15;;
67981;SDS011;64109;52.148;4.466;2022-12-19T15:49:04;2.25;;;1.30;;
67981;SDS011;64109;52.148;4.466;2022-12-19T15:51:30;2.53;;;1.20;;
67981;SDS011;64109;52.148;4.466;2022-12-19T15:53:56;2.20;;;1.10;;
67981;SDS011;64109;52.148;4.466;2022-12-19T15:56:24;2.72;;;1.13;;
67981;SDS011;64109;52.148;4.466;2022-12-19T15:58:51;2.40;;;1.15;;
67981;SDS011;64109;52.148;4.466;2022-12-19T16:01:18;2.20;;;1.65;;
67981;SDS011;64109;52.148;4.466;2022-12-19T16:03:45;2.70;;;1.50;;
67981;SDS011;64109;52.148;4.466;2022-12-19T16:06:12;2.55;;;1.00;;
67981;SDS011;64109;52.148;4.466;2022-12-19T16:08:38;2.20;;;1.42;;
67981;SDS011;64109;52.148;4.466;2022-12-19T16:11:04;1.92;;;0.95;;
67981;SDS011;64109;52.148;4.466;2022-12-19T16:13:31;2.47;;;1.10;;
67981;SDS011;64109;52.148;4.466;2022-12-19T16:15:58;2.83;;;1.45;;
67981;SDS011;64109;52.148;4.466;2022-12-19T16:18:24;1.77;;;1.13;;
67981;SDS011;64109;52.148;4.466;2022-12-19T16:20:51;2.80;;;1.17;;
67981;SDS011;64109;52.148;4.466;2022-12-19T16:23:17;3.13;;;1.48;;
67981;SDS011;64109;52.148;4.466;2022-12-19T16:25:47;2.72;;;1.30;;
67981;SDS011;64109;52.148;4.466;2022-12-19T16:28:27;2.65;;;1.10;;
67981;SDS011;64109;52.148;4.466;2022-12-19T16:30:56;2.20;;;0.98;;
67981;SDS011;64109;52.148;4.466;2022-12-19T16:33:24;1.70;;;1.08;;
67981;SDS011;64109;52.148;4.466;2022-12-19T16:35:51;3.25;;;1.30;;
67981;SDS011;64109;52.148;4.466;2022-12-19T16:38:17;4.03;;;1.33;;
67981;SDS011;64109;52.148;4.466;2022-12-19T16:40:44;1.80;;;1.13;;
67981;SDS011;64109;52.148;4.466;2022-12-19T16:43:17;2.83;;;1.27;;
67981;SDS011;64109;52.148;4.466;2022-12-19T16:45:45;2.75;;;1.10;;
67981;SDS011;64109;52.148;4.466;2022-12-19T16:48:22;2.47;;;1.35;;
67981;SDS011;64109;52.148;4.466;2022-12-19T16:50:48;1.42;;;1.10;;
67981;SDS011;64109;52.148;4.466;2022-12-19T16:53:14;2.92;;;1.20;;
67981;SDS011;64109;52.148;4.466;2022-12-19T16:55:40;2.92;;;1.20;;
67981;SDS011;64109;52.148;4.466;2022-12-19T16:58:07;1.80;;;1.27;;
67981;SDS011;64109;52.148;4.466;2022-12-19T17:00:34;3.03;;;1.23;;
67981;SDS011;64109;52.148;4.466;2022-12-19T17:03:04;3.28;;;1.30;;
67981;SDS011;64109;52.148;4.466;2022-12-19T17:05:31;3.20;;;1.40;;
67981;SDS011;64109;52.148;4.466;2022-12-19T17:07:58;2.63;;;1.17;;
67981;SDS011;64109;52.148;4.466;2022-12-19T17:10:30;2.97;;;1.45;;
67981;SDS011;64109;52.148;4.466;2022-12-19T17:12:57;2.47;;;1.60;;
67981;SDS011;64109;52.148;4.466;2022-12-19T17:15:28;1.52;;;1.10;;
67981;SDS011;64109;52.148;4.466;2022-12-19T17:17:55;3.28;;;1.30;;
67981;SDS011;64109;52.148;4.466;2022-12-19T17:20:22;3.30;;;1.50;;
67981;SDS011;64109;52.148;4.466;2022-12-19T17:22:49;2.10;;;1.27;;
67981;SDS011;64109;52.148;4.466;2022-12-19T17:25:17;1.75;;;1.10;;
67981;SDS011;64109;52.148;4.466;2022-12-19T17:27:44;2.65;;;1.33;;